Terminal Aerodrome Forecast
Issued by NWS State College, PA

Home | Current Version | Previous Version | Text Only | Print | Product List | Glossary On
Versions: 1 2 3 4 5 6 7 8 9 10 11 12 13 14 15 16 17 18 19 20 21 22 23 24 25 26 27 28 29 30 31 32 33 34 35 36 37 38 39 40 41 42
000
FTUS41 KCTP 272337
TAFIPT
TAF
KIPT 272337Z 2800/2824 09006KT P6SM VCTS BKN050 OVC100CB
      TEMPO 2803/2807 3SM TSRA OVC025CB
     FM280700 VRB05KT 5SM BR VCSH OVC015
     FM281300 28013KT P6SM VCSH OVC035=

USA.gov is the U.S. government's official web portal to all federal, state and local government web resources and services.